Time;durP1;ratioP1;P1;durP2;ratioP2;P2;SDS_P1;SDS_P2;PMS_P1;PMS_P2;Temp;Humidity;BMP_temperature;BMP_pressure;BME280_temperature;BME280_humidity;BME280_pressure;Samples;Min_cycle;Max_cycle;Signal;HPM_P1;HPM_P2
2022/05/31 00:01:59;;;;;;;7.65;5.80;;;;;;;;;;5011464;28;92557;-73
2022/05/31 00:04:25;;;;;;;8.35;5.15;;;;;;;;;;5014936;28;93339;-73
2022/05/31 00:06:51;;;;;;;6.13;5.53;;;;;;;;;;5013689;28;93658;-73
2022/05/31 00:09:18;;;;;;;7.38;5.05;;;;;;;;;;5012300;28;91843;-73
2022/05/31 00:11:44;;;;;;;7.22;4.57;;;;;;;;;;4994804;28;92804;-74
2022/05/31 00:14:11;;;;;;;5.93;4.55;;;;;;;;;;5014737;28;92509;-73
2022/05/31 00:16:38;;;;;;;6.18;4.68;;;;;;;;;;4993469;28;94851;-73
2022/05/31 00:19:05;;;;;;;5.03;4.32;;;;;;;;;;4996159;28;93471;-74
2022/05/31 00:21:42;;;;;;;6.47;4.78;;;;;;;;;;5011610;28;93535;-74
2022/05/31 00:24:10;;;;;;;9.07;4.57;;;;;;;;;;5008754;28;93190;-73
2022/05/31 00:26:38;;;;;;;8.82;4.80;;;;;;;;;;5012132;28;94366;-74
2022/05/31 00:29:05;;;;;;;4.25;3.95;;;;;;;;;;5010841;28;92606;-74
2022/05/31 00:31:31;;;;;;;5.05;3.83;;;;;;;;;;5012354;28;94340;-74
2022/05/31 00:33:58;;;;;;;5.40;4.32;;;;;;;;;;4998952;28;93028;-74
2022/05/31 00:36:24;;;;;;;7.43;4.90;;;;;;;;;;5012813;28;93811;-73
2022/05/31 00:38:51;;;;;;;4.50;4.10;;;;;;;;;;5013072;28;93579;-73
2022/05/31 00:41:23;;;;;;;7.07;4.53;;;;;;;;;;5012056;28;94882;-74
2022/05/31 00:43:54;;;;;;;5.72;4.32;;;;;;;;;;5014011;28;94173;-74
2022/05/31 00:46:21;;;;;;;4.07;3.72;;;;;;;;;;5015829;28;93507;-74
2022/05/31 00:48:57;;;;;;;9.05;4.15;;;;;;;;;;5016796;28;92493;-74
2022/05/31 00:51:26;;;;;;;7.18;4.20;;;;;;;;;;5015278;28;93184;-73
2022/05/31 00:54:04;;;;;;;6.78;4.20;;;;;;;;;;4999449;28;93808;-73
2022/05/31 00:56:31;;;;;;;9.38;4.20;;;;;;;;;;5014949;28;93883;-74
2022/05/31 00:59:07;;;;;;;5.05;3.65;;;;;;;;;;5016219;28;91794;-73
2022/05/31 01:01:36;;;;;;;10.75;3.92;;;;;;;;;;4996516;28;92503;-73
2022/05/31 01:04:03;;;;;;;4.55;4.15;;;;;;;;;;4998467;28;93452;-73
2022/05/31 01:06:30;;;;;;;5.25;4.20;;;;;;;;;;5012525;28;95973;-73
2022/05/31 01:08:57;;;;;;;4.50;4.07;;;;;;;;;;4994808;28;92605;-73
2022/05/31 01:11:27;;;;;;;4.53;3.90;;;;;;;;;;5016134;28;93151;-73
2022/05/31 01:13:54;;;;;;;4.03;3.57;;;;;;;;;;5013191;28;93219;-73
2022/05/31 01:16:20;;;;;;;4.95;4.10;;;;;;;;;;5018326;28;92437;-73
2022/05/31 01:18:53;;;;;;;5.53;3.92;;;;;;;;;;4997617;28;93922;-74
2022/05/31 01:21:19;;;;;;;8.95;4.70;;;;;;;;;;5012976;28;94139;-74
2022/05/31 01:23:59;;;;;;;7.30;4.30;;;;;;;;;;5016195;28;93337;-73
2022/05/31 01:26:38;;;;;;;7.20;4.20;;;;;;;;;;5011402;28;93360;-73
2022/05/31 01:29:08;;;;;;;7.28;3.92;;;;;;;;;;5004538;28;92444;-74
2022/05/31 01:31:51;;;;;;;4.53;3.85;;;;;;;;;;5010672;28;95033;-74
2022/05/31 01:34:19;;;;;;;4.95;3.72;;;;;;;;;;5014287;28;93290;-73
2022/05/31 01:36:47;;;;;;;15.68;4.13;;;;;;;;;;4980606;28;92513;-73
2022/05/31 01:39:18;;;;;;;4.13;3.83;;;;;;;;;;5017542;28;92469;-73
2022/05/31 01:41:49;;;;;;;9.30;4.30;;;;;;;;;;4993760;28;92473;-73
2022/05/31 01:44:17;;;;;;;4.05;3.70;;;;;;;;;;5013811;28;93063;-73
2022/05/31 01:46:43;;;;;;;4.90;4.00;;;;;;;;;;4996020;28;92476;-73
2022/05/31 01:49:12;;;;;;;6.50;4.18;;;;;;;;;;5013752;28;91739;-73
2022/05/31 01:51:40;;;;;;;5.60;4.07;;;;;;;;;;5014293;28;92640;-73
2022/05/31 01:54:08;;;;;;;6.60;4.03;;;;;;;;;;4993141;28;93615;-73
2022/05/31 01:56:35;;;;;;;4.35;3.92;;;;;;;;;;5012071;28;95029;-73
2022/05/31 01:59:03;;;;;;;4.75;3.70;;;;;;;;;;5009616;28;95611;-73
2022/05/31 02:01:30;;;;;;;6.60;3.80;;;;;;;;;;5017249;28;94454;-73
2022/05/31 02:03:58;;;;;;;4.55;4.07;;;;;;;;;;5011708;28;93093;-73
2022/05/31 02:06:32;;;;;;;5.72;3.80;;;;;;;;;;5014602;28;92425;-73
2022/05/31 02:08:59;;;;;;;4.68;3.72;;;;;;;;;;5014088;28;92561;-73
2022/05/31 02:11:25;;;;;;;6.63;3.17;;;;;;;;;;4995628;28;93761;-73
2022/05/31 02:13:52;;;;;;;4.45;3.60;;;;;;;;;;4974111;28;1093743;-73
2022/05/31 02:16:19;;;;;;;4.75;3.80;;;;;;;;;;5014411;28;93204;-73
2022/05/31 02:21:35;;;;;;;5.53;3.70;;;;;;;;;;5012566;28;96912;-73
2022/05/31 02:24:05;;;;;;;5.75;3.78;;;;;;;;;;5013334;28;92566;-73
2022/05/31 02:26:32;;;;;;;5.68;3.90;;;;;;;;;;4994923;28;93544;-73
2022/05/31 02:28:59;;;;;;;5.28;4.20;;;;;;;;;;5013100;28;92591;-73
2022/05/31 02:31:26;;;;;;;6.22;3.80;;;;;;;;;;5012452;28;95051;-73
2022/05/31 02:33:53;;;;;;;5.68;3.35;;;;;;;;;;5013197;28;94645;-73
2022/05/31 02:36:19;;;;;;;4.45;3.58;;;;;;;;;;4997400;28;92435;-73
2022/05/31 02:38:46;;;;;;;10.10;3.63;;;;;;;;;;5013180;28;93216;-73
2022/05/31 02:41:13;;;;;;;8.27;3.72;;;;;;;;;;5015736;28;93423;-72
2022/05/31 02:43:39;;;;;;;4.65;3.85;;;;;;;;;;5015412;28;92486;-72
2022/05/31 02:46:06;;;;;;;5.50;3.60;;;;;;;;;;4999381;28;94936;-73
2022/05/31 02:48:32;;;;;;;4.68;3.63;;;;;;;;;;5011592;28;92512;-73
2022/05/31 02:50:58;;;;;;;4.85;3.67;;;;;;;;;;5004273;28;95234;-73
2022/05/31 02:53:24;;;;;;;4.10;3.17;;;;;;;;;;5011912;28;93411;-74
2022/05/31 02:55:51;;;;;;;6.18;3.60;;;;;;;;;;5013660;28;93097;-73
2022/05/31 02:58:17;;;;;;;5.68;3.70;;;;;;;;;;4996235;28;93106;-73
2022/05/31 03:00:43;;;;;;;5.13;3.53;;;;;;;;;;4980450;28;94023;-73
2022/05/31 03:03:10;;;;;;;4.85;3.75;;;;;;;;;;5013376;28;91753;-73
2022/05/31 03:05:36;;;;;;;3.45;3.15;;;;;;;;;;5017591;28;92485;-73
2022/05/31 03:08:03;;;;;;;6.68;4.28;;;;;;;;;;4992093;28;92877;-73
2022/05/31 03:10:33;;;;;;;3.70;3.40;;;;;;;;;;5012956;28;96601;-73
2022/05/31 03:13:00;;;;;;;4.80;4.10;;;;;;;;;;5013749;28;93573;-73
2022/05/31 03:15:29;;;;;;;6.78;3.60;;;;;;;;;;4996149;28;92547;-73
2022/05/31 03:18:03;;;;;;;3.65;3.30;;;;;;;;;;5008282;28;94895;-73
2022/05/31 03:20:34;;;;;;;12.07;3.45;;;;;;;;;;5012956;28;93299;-73
2022/05/31 03:23:03;;;;;;;7.55;3.60;;;;;;;;;;5015531;28;94760;-73
2022/05/31 03:25:30;;;;;;;6.95;3.35;;;;;;;;;;5022002;28;93389;-73
2022/05/31 03:28:04;;;;;;;3.40;3.20;;;;;;;;;;5014262;28;91945;-73
2022/05/31 03:30:30;;;;;;;5.57;3.20;;;;;;;;;;5009478;28;92506;-73
2022/05/31 03:32:57;;;;;;;4.93;3.58;;;;;;;;;;4993308;28;93886;-72
2022/05/31 03:35:23;;;;;;;5.10;3.25;;;;;;;;;;4995540;28;94884;-72
2022/05/31 03:37:49;;;;;;;3.70;3.40;;;;;;;;;;5014148;28;95849;-73
2022/05/31 03:40:56;;;;;;;6.30;3.47;;;;;;;;;;5012233;28;93995;-73
2022/05/31 03:43:03;;;;;;;4.43;3.58;;;;;;;;;;5013894;28;92458;-74
2022/05/31 03:45:33;;;;;;;5.43;3.63;;;;;;;;;;5011511;28;93329;-73
2022/05/31 03:47:59;;;;;;;7.68;3.50;;;;;;;;;;4995774;28;93456;-73
2022/05/31 03:50:26;;;;;;;4.13;3.40;;;;;;;;;;5010438;28;92472;-72
2022/05/31 03:52:53;;;;;;;12.60;3.90;;;;;;;;;;5004226;28;92546;-73
2022/05/31 03:55:19;;;;;;;3.83;3.47;;;;;;;;;;4995010;28;92498;-73
2022/05/31 03:57:49;;;;;;;6.90;3.65;;;;;;;;;;5010414;28;95545;-72
2022/05/31 04:00:16;;;;;;;5.15;3.45;;;;;;;;;;5008959;28;95821;-73
2022/05/31 04:02:42;;;;;;;5.57;3.83;;;;;;;;;;4995694;28;92352;-73
2022/05/31 04:05:09;;;;;;;9.85;3.83;;;;;;;;;;5014581;28;93265;-73
2022/05/31 04:07:35;;;;;;;3.67;3.38;;;;;;;;;;5009012;28;93524;-73
2022/05/31 04:10:03;;;;;;;4.82;4.13;;;;;;;;;;5011403;28;92590;-74
2022/05/31 04:12:30;;;;;;;6.75;3.72;;;;;;;;;;5011942;28;93440;-73
2022/05/31 04:14:57;;;;;;;8.63;3.45;;;;;;;;;;5010850;28;92591;-73
2022/05/31 04:17:23;;;;;;;9.75;3.92;;;;;;;;;;5011234;28;93670;-73
2022/05/31 04:19:50;;;;;;;6.50;3.22;;;;;;;;;;4994992;28;94547;-73
2022/05/31 04:22:16;;;;;;;4.75;4.15;;;;;;;;;;5013671;28;92496;-73
2022/05/31 04:24:42;;;;;;;6.35;4.28;;;;;;;;;;4992395;28;95043;-73
2022/05/31 04:27:14;;;;;;;4.47;3.83;;;;;;;;;;5013252;28;93550;-74
2022/05/31 04:29:40;;;;;;;4.90;4.28;;;;;;;;;;5007069;28;92869;-74
2022/05/31 04:32:06;;;;;;;7.43;4.00;;;;;;;;;;5010551;28;94221;-73
2022/05/31 04:34:33;;;;;;;6.63;4.43;;;;;;;;;;5012831;28;93372;-73
2022/05/31 04:37:00;;;;;;;5.72;3.78;;;;;;;;;;5012464;28;94274;-74
2022/05/31 04:39:26;;;;;;;7.53;4.70;;;;;;;;;;5013146;28;93228;-73
2022/05/31 04:41:53;;;;;;;8.45;4.43;;;;;;;;;;4995261;28;91717;-73
2022/05/31 04:44:19;;;;;;;4.40;4.00;;;;;;;;;;5013563;28;92990;-73
2022/05/31 04:46:48;;;;;;;11.95;4.22;;;;;;;;;;4995867;28;94521;-73
2022/05/31 04:49:14;;;;;;;5.80;3.60;;;;;;;;;;5010119;28;94894;-73
2022/05/31 04:51:41;;;;;;;7.15;4.70;;;;;;;;;;4993872;28;95713;-74
2022/05/31 04:54:07;;;;;;;8.02;4.18;;;;;;;;;;5011249;28;93791;-73
2022/05/31 04:56:35;;;;;;;14.20;4.22;;;;;;;;;;5015534;28;92602;-73
2022/05/31 04:59:02;;;;;;;7.40;4.88;;;;;;;;;;4986859;28;92390;-73
2022/05/31 05:01:28;;;;;;;16.63;4.43;;;;;;;;;;5009372;28;93216;-73
2022/05/31 05:03:54;;;;;;;7.85;4.13;;;;;;;;;;5010957;28;93623;-74
2022/05/31 05:06:28;;;;;;;8.02;4.45;;;;;;;;;;4995675;28;93512;-72
2022/05/31 05:08:55;;;;;;;7.85;3.97;;;;;;;;;;5011014;28;92514;-72
2022/05/31 05:11:22;;;;;;;7.88;3.88;;;;;;;;;;5011556;28;93995;-73
2022/05/31 05:13:48;;;;;;;4.78;3.67;;;;;;;;;;5010035;28;96584;-73
2022/05/31 05:16:15;;;;;;;8.18;5.03;;;;;;;;;;5010103;28;92577;-72
2022/05/31 05:18:41;;;;;;;5.18;4.15;;;;;;;;;;4993754;28;95261;-74
2022/05/31 05:21:09;;;;;;;8.38;4.75;;;;;;;;;;4991462;28;92921;-73
2022/05/31 05:23:36;;;;;;;11.13;4.70;;;;;;;;;;5013382;28;93377;-73
2022/05/31 05:26:02;;;;;;;9.98;5.07;;;;;;;;;;5011132;28;93702;-73
2022/05/31 05:31:19;;;;;;;8.90;5.78;;;;;;;;;;5010201;28;92852;-73
2022/05/31 05:33:45;;;;;;;8.70;5.47;;;;;;;;;;4995153;28;93817;-73
2022/05/31 05:36:12;;;;;;;8.05;5.30;;;;;;;;;;5014765;28;92490;-73
2022/05/31 05:38:39;;;;;;;10.52;6.07;;;;;;;;;;5017223;28;94834;-73
2022/05/31 05:41:05;;;;;;;12.43;5.85;;;;;;;;;;5017408;28;92442;-73
2022/05/31 05:43:31;;;;;;;12.52;5.68;;;;;;;;;;4993477;28;93390;-73
2022/05/31 05:45:58;;;;;;;11.80;5.75;;;;;;;;;;4996140;28;93379;-74
2022/05/31 05:48:24;;;;;;;7.40;5.50;;;;;;;;;;5016062;28;92520;-73
2022/05/31 05:50:50;;;;;;;9.02;5.63;;;;;;;;;;5016789;28;93070;-74
2022/05/31 05:53:17;;;;;;;7.80;5.55;;;;;;;;;;5012900;28;93695;-72
2022/05/31 05:55:43;;;;;;;15.40;6.50;;;;;;;;;;4995220;28;91731;-72
2022/05/31 05:58:09;;;;;;;14.57;6.40;;;;;;;;;;5008505;28;92669;-72
2022/05/31 06:00:39;;;;;;;15.40;6.72;;;;;;;;;;5016780;28;93306;-73
2022/05/31 06:03:09;;;;;;;12.65;6.68;;;;;;;;;;5011870;28;94883;-73
2022/05/31 06:05:35;;;;;;;10.43;6.70;;;;;;;;;;5014182;28;93962;-73
2022/05/31 06:08:03;;;;;;;18.33;6.55;;;;;;;;;;5016008;28;92506;-73
2022/05/31 06:10:33;;;;;;;11.35;6.05;;;;;;;;;;5015315;28;93631;-73
2022/05/31 06:13:13;;;;;;;9.20;6.18;;;;;;;;;;5011163;28;93571;-74
2022/05/31 06:15:41;;;;;;;9.77;6.28;;;;;;;;;;5014393;28;93264;-73
2022/05/31 06:18:10;;;;;;;8.75;6.30;;;;;;;;;;5010939;28;93392;-73
2022/05/31 06:20:37;;;;;;;13.10;6.85;;;;;;;;;;4990677;28;92729;-73
2022/05/31 06:23:03;;;;;;;11.70;6.43;;;;;;;;;;5002238;28;92646;-73
2022/05/31 06:25:29;;;;;;;8.55;6.13;;;;;;;;;;4983544;28;93298;-73
2022/05/31 06:27:56;;;;;;;12.63;7.20;;;;;;;;;;4993099;28;94971;-73
2022/05/31 06:30:22;;;;;;;14.63;7.13;;;;;;;;;;5014485;28;95537;-73
2022/05/31 06:32:48;;;;;;;21.30;7.55;;;;;;;;;;5012057;28;93855;-73
2022/05/31 06:35:15;;;;;;;13.65;7.45;;;;;;;;;;5008065;28;92644;-73
2022/05/31 06:37:41;;;;;;;11.90;7.65;;;;;;;;;;5013610;28;93208;-74
2022/05/31 06:40:08;;;;;;;15.57;8.00;;;;;;;;;;4992994;28;93423;-73
2022/05/31 06:42:34;;;;;;;14.02;8.38;;;;;;;;;;5013865;28;92654;-73
2022/05/31 06:45:00;;;;;;;20.40;8.88;;;;;;;;;;5018434;28;93480;-73
2022/05/31 06:47:27;;;;;;;13.95;7.93;;;;;;;;;;5011888;28;92917;-73
2022/05/31 06:49:53;;;;;;;17.35;8.85;;;;;;;;;;5007625;28;93482;-73
2022/05/31 06:57:49;;;;;;;17.92;8.68;;;;;;;;;;5012782;28;93569;-73
2022/05/31 07:00:18;;;;;;;18.95;9.18;;;;;;;;;;5010007;28;93354;-74
2022/05/31 07:02:45;;;;;;;13.30;8.45;;;;;;;;;;5008527;28;93025;-74
2022/05/31 07:05:12;;;;;;;16.27;8.68;;;;;;;;;;5015623;28;93003;-74
2022/05/31 07:07:39;;;;;;;18.17;8.30;;;;;;;;;;5014323;28;92628;-74
2022/05/31 07:10:06;;;;;;;14.75;8.32;;;;;;;;;;5015122;28;93562;-75
2022/05/31 07:12:33;;;;;;;11.10;7.50;;;;;;;;;;5013237;28;93637;-74
2022/05/31 07:15:00;;;;;;;11.48;7.80;;;;;;;;;;5010962;28;92538;-74
2022/05/31 07:17:26;;;;;;;20.58;9.02;;;;;;;;;;5012750;28;96213;-75
2022/05/31 07:19:53;;;;;;;21.42;8.07;;;;;;;;;;5014650;28;93575;-74
2022/05/31 07:22:35;;;;;;;16.55;8.63;;;;;;;;;;5013707;28;92488;-74
2022/05/31 07:25:02;;;;;;;13.75;7.55;;;;;;;;;;5005310;28;94451;-74
2022/05/31 07:27:28;;;;;;;10.82;7.15;;;;;;;;;;5018118;28;93689;-75
2022/05/31 07:29:54;;;;;;;11.85;7.50;;;;;;;;;;4997836;28;93318;-75
2022/05/31 07:32:21;;;;;;;11.77;6.75;;;;;;;;;;5011720;28;93625;-75
2022/05/31 07:35:07;;;;;;;12.15;7.32;;;;;;;;;;5015414;28;91677;-75
2022/05/31 07:37:35;;;;;;;12.90;7.57;;;;;;;;;;4997900;28;92903;-75
2022/05/31 07:40:02;;;;;;;19.58;7.63;;;;;;;;;;5010812;28;93635;-74
2022/05/31 07:42:28;;;;;;;20.40;6.97;;;;;;;;;;5003292;28;94894;-75
2022/05/31 07:44:55;;;;;;;11.05;6.85;;;;;;;;;;5013400;28;96549;-75
2022/05/31 07:47:22;;;;;;;13.18;7.13;;;;;;;;;;4978948;28;93344;-74
2022/05/31 07:49:49;;;;;;;16.25;7.38;;;;;;;;;;5007353;28;92477;-74
2022/05/31 07:52:15;;;;;;;11.48;6.68;;;;;;;;;;5011819;28;93562;-75
2022/05/31 07:54:42;;;;;;;15.15;7.47;;;;;;;;;;4993513;28;92460;-75
2022/05/31 07:58:30;;;;;;;11.02;6.88;;;;;;;;;;5014600;28;93413;-74
2022/05/31 07:59:55;;;;;;;10.90;6.53;;;;;;;;;;5009489;28;92840;-74
2022/05/31 08:02:24;;;;;;;17.20;6.70;;;;;;;;;;4987386;28;92700;-74
2022/05/31 08:04:50;;;;;;;16.08;6.78;;;;;;;;;;5009195;28;94020;-74
2022/05/31 08:07:17;;;;;;;17.58;7.18;;;;;;;;;;5006658;28;95923;-74
2022/05/31 08:09:44;;;;;;;12.38;7.03;;;;;;;;;;5012146;28;93850;-74
2022/05/31 08:12:11;;;;;;;18.70;7.13;;;;;;;;;;4999910;28;93153;-74
2022/05/31 08:14:37;;;;;;;9.93;5.15;;;;;;;;;;5011510;28;92441;-74
2022/05/31 08:17:03;;;;;;;11.13;5.38;;;;;;;;;;5014561;28;93205;-74
2022/05/31 08:19:30;;;;;;;8.70;4.75;;;;;;;;;;4990602;28;93780;-74
2022/05/31 08:21:57;;;;;;;6.32;4.07;;;;;;;;;;5010079;28;92601;-74
2022/05/31 08:24:24;;;;;;;5.50;3.65;;;;;;;;;;4994155;28;95453;-74
2022/05/31 08:27:09;;;;;;;6.95;4.57;;;;;;;;;;5008936;28;93533;-74
2022/05/31 08:29:35;;;;;;;9.38;3.80;;;;;;;;;;5012787;28;92518;-74
2022/05/31 08:32:02;;;;;;;15.55;4.50;;;;;;;;;;5011252;28;94877;-75
2022/05/31 08:34:29;;;;;;;6.40;3.45;;;;;;;;;;5011070;28;93920;-74
2022/05/31 08:36:55;;;;;;;15.30;3.97;;;;;;;;;;5009877;28;94525;-74
2022/05/31 08:39:22;;;;;;;5.55;3.63;;;;;;;;;;5010818;28;93530;-74
2022/05/31 08:41:50;;;;;;;7.40;3.65;;;;;;;;;;4992151;28;92520;-75
2022/05/31 08:44:25;;;;;;;9.00;4.75;;;;;;;;;;4983302;28;93542;-74
2022/05/31 08:47:00;;;;;;;8.52;5.15;;;;;;;;;;5005354;28;92796;-74
2022/05/31 08:51:52;;;;;;;9.52;5.30;;;;;;;;;;4991783;28;91741;-74
2022/05/31 08:52:19;;;;;;;9.27;5.43;;;;;;;;;;5008862;28;92680;-74
2022/05/31 08:57:44;;;;;;;8.00;4.80;;;;;;;;;;5007535;28;94887;-74
2022/05/31 09:00:19;;;;;;;8.50;4.47;;;;;;;;;;5007931;28;93446;-74
2022/05/31 09:02:54;;;;;;;9.55;5.20;;;;;;;;;;5007357;28;92530;-74
2022/05/31 09:05:20;;;;;;;12.27;5.38;;;;;;;;;;4997788;28;93207;-74
2022/05/31 09:07:52;;;;;;;9.95;5.10;;;;;;;;;;4991095;28;93608;-74
2022/05/31 09:10:35;;;;;;;8.45;5.55;;;;;;;;;;5017112;28;92487;-74
2022/05/31 09:13:05;;;;;;;10.10;5.15;;;;;;;;;;5000329;28;93914;-74
2022/05/31 09:15:36;;;;;;;10.25;5.18;;;;;;;;;;4992185;28;92959;-74
2022/05/31 09:18:04;;;;;;;;;;;;;;;;;;5021378;28;92444;-74
2022/05/31 09:20:30;;;;;;;9.60;4.90;;;;;;;;;;5017665;28;123976;-74
2022/05/31 09:22:57;;;;;;;9.13;5.07;;;;;;;;;;5016786;28;94935;-74
2022/05/31 09:25:24;;;;;;;11.93;5.60;;;;;;;;;;5037204;28;95836;-74
2022/05/31 09:27:51;;;;;;;15.13;5.63;;;;;;;;;;5037200;28;92349;-74
2022/05/31 09:30:24;;;;;;;8.52;5.32;;;;;;;;;;5023266;28;92490;-74
2022/05/31 09:33:08;;;;;;;19.13;6.18;;;;;;;;;;4999825;28;94194;-74
2022/05/31 09:35:56;;;;;;;7.53;4.80;;;;;;;;;;5016734;28;93888;-74
2022/05/31 09:38:45;;;;;;;11.13;4.70;;;;;;;;;;5017504;28;92417;-74
2022/05/31 09:41:29;;;;;;;8.40;4.68;;;;;;;;;;4938588;28;92423;-74
2022/05/31 09:44:00;;;;;;;9.30;4.50;;;;;;;;;;4934749;28;93156;-74
2022/05/31 09:46:29;;;;;;;8.27;4.30;;;;;;;;;;4935967;28;93482;-74
2022/05/31 09:48:56;;;;;;;8.48;4.22;;;;;;;;;;4933800;28;95924;-74
2022/05/31 09:51:23;;;;;;;11.07;4.25;;;;;;;;;;4935872;28;92639;-74
2022/05/31 09:59:24;;;;;;;17.05;4.97;;;;;;;;;;4915987;28;92594;-74
2022/05/31 10:01:51;;;;;;;10.82;4.45;;;;;;;;;;4916699;28;94471;-74
2022/05/31 10:04:22;;;;;;;8.70;4.68;;;;;;;;;;4918496;28;93490;-74
2022/05/31 10:07:04;;;;;;;23.73;3.83;;;;;;;;;;4916776;28;93863;-74
2022/05/31 10:09:41;;;;;;;5.78;3.00;;;;;;;;;;4922028;28;93550;-74
2022/05/31 10:12:10;;;;;;;8.18;3.30;;;;;;;;;;4934565;28;92744;-74
2022/05/31 10:14:39;;;;;;;5.10;3.03;;;;;;;;;;4932898;28;94880;-74
2022/05/31 10:17:24;;;;;;;18.83;3.70;;;;;;;;;;4919733;28;94927;-74
2022/05/31 10:20:05;;;;;;;11.85;3.75;;;;;;;;;;5016344;28;92424;-74
2022/05/31 10:22:31;;;;;;;7.18;3.65;;;;;;;;;;5016010;28;93728;-74
2022/05/31 10:24:57;;;;;;;7.45;3.47;;;;;;;;;;5034058;28;94517;-74
2022/05/31 10:27:27;;;;;;;6.47;3.60;;;;;;;;;;5039706;28;92464;-74
2022/05/31 10:30:08;;;;;;;7.88;3.50;;;;;;;;;;5019722;28;94176;-74
2022/05/31 10:32:34;;;;;;;11.43;3.80;;;;;;;;;;5036923;28;91725;-74
2022/05/31 10:35:15;;;;;;;8.80;3.72;;;;;;;;;;5036204;28;92617;-75
2022/05/31 10:37:55;;;;;;;9.77;4.15;;;;;;;;;;5003208;28;93750;-74
2022/05/31 10:40:22;;;;;;;10.90;3.25;;;;;;;;;;4996785;28;94924;-73
2022/05/31 10:42:51;;;;;;;5.18;3.22;;;;;;;;;;5015710;28;95761;-74
2022/05/31 10:45:36;;;;;;;9.80;3.65;;;;;;;;;;5015637;28;93396;-74
2022/05/31 10:48:08;;;;;;;9.63;3.95;;;;;;;;;;5015806;28;92546;-74
2022/05/31 10:50:40;;;;;;;9.02;4.43;;;;;;;;;;5000812;28;92968;-74
2022/05/31 10:53:17;;;;;;;8.35;3.85;;;;;;;;;;4998251;28;92559;-74
2022/05/31 10:55:51;;;;;;;9.10;4.75;;;;;;;;;;5015767;28;92932;-74
2022/05/31 10:58:30;;;;;;;8.45;4.18;;;;;;;;;;4998127;28;93267;-74
2022/05/31 11:01:04;;;;;;;4.88;3.30;;;;;;;;;;4998045;28;92499;-74
2022/05/31 11:03:36;;;;;;;11.15;4.50;;;;;;;;;;5015922;28;93121;-74
2022/05/31 11:06:21;;;;;;;9.38;4.32;;;;;;;;;;5013424;28;95859;-74
2022/05/31 11:11:51;;;;;;;7.82;4.00;;;;;;;;;;4995406;28;92422;-74
2022/05/31 11:14:24;;;;;;;12.07;4.15;;;;;;;;;;5000892;28;92627;-74
2022/05/31 11:16:58;;;;;;;8.45;4.10;;;;;;;;;;5014249;28;93217;-73
2022/05/31 11:19:36;;;;;;;12.70;4.00;;;;;;;;;;4994521;28;94456;-74
2022/05/31 11:22:20;;;;;;;5.13;3.13;;;;;;;;;;4978882;28;92402;-73
2022/05/31 11:24:59;;;;;;;9.20;4.07;;;;;;;;;;5028666;28;94530;-74
2022/05/31 11:27:42;;;;;;;5.53;3.15;;;;;;;;;;5013123;28;93274;-74
2022/05/31 11:30:17;;;;;;;5.13;3.60;;;;;;;;;;5015239;28;92495;-74
2022/05/31 11:33:02;;;;;;;6.15;3.40;;;;;;;;;;5013659;28;94816;-74
2022/05/31 11:35:28;;;;;;;8.50;3.53;;;;;;;;;;5018022;28;93977;-74
2022/05/31 11:38:02;;;;;;;5.47;2.65;;;;;;;;;;5015116;28;93611;-73
2022/05/31 11:40:32;;;;;;;5.43;2.90;;;;;;;;;;4997334;28;93348;-73
2022/05/31 11:42:58;;;;;;;;;;;;;;;;;;5014541;28;92595;-73
2022/05/31 11:45:31;;;;;;;5.13;3.17;;;;;;;;;;4998489;28;123488;-73
2022/05/31 11:48:03;;;;;;;6.78;3.58;;;;;;;;;;5014864;28;93453;-73
2022/05/31 11:50:51;;;;;;;4.95;2.97;;;;;;;;;;5014943;28;91966;-73
2022/05/31 11:53:36;;;;;;;5.63;2.70;;;;;;;;;;5015118;28;92489;-73
2022/05/31 11:56:07;;;;;;;9.18;3.60;;;;;;;;;;5013801;28;93872;-73
2022/05/31 11:58:36;;;;;;;7.03;3.38;;;;;;;;;;5016288;28;94836;-73
2022/05/31 12:01:11;;;;;;;5.00;3.28;;;;;;;;;;4996825;28;93352;-74
2022/05/31 12:03:43;;;;;;;8.35;3.55;;;;;;;;;;4997345;28;92409;-73
2022/05/31 12:06:23;;;;;;;4.88;3.00;;;;;;;;;;5012995;28;93383;-73
2022/05/31 12:09:00;;;;;;;6.97;2.90;;;;;;;;;;5014311;28;93466;-74
2022/05/31 12:11:32;;;;;;;8.43;3.33;;;;;;;;;;4996741;28;92513;-73
2022/05/31 12:13:59;;;;;;;6.90;3.10;;;;;;;;;;5015153;28;93232;-73
2022/05/31 12:16:26;;;;;;;5.72;3.42;;;;;;;;;;5006364;28;92805;-74
2022/05/31 12:19:14;;;;;;;8.93;2.97;;;;;;;;;;5014457;28;92489;-74
2022/05/31 12:21:44;;;;;;;5.65;2.88;;;;;;;;;;5018186;28;93393;-74
2022/05/31 12:24:13;;;;;;;8.15;2.83;;;;;;;;;;5006760;28;94892;-74
2022/05/31 12:26:45;;;;;;;3.95;2.70;;;;;;;;;;5027252;28;95504;-73
2022/05/31 12:29:11;;;;;;;10.15;3.25;;;;;;;;;;4996340;28;93944;-74
2022/05/31 12:31:39;;;;;;;2.90;2.60;;;;;;;;;;5014850;28;92364;-73
2022/05/31 12:34:18;;;;;;;5.18;2.92;;;;;;;;;;4997009;28;93140;-73
2022/05/31 12:37:14;;;;;;;3.88;2.90;;;;;;;;;;5014865;28;93480;-73
2022/05/31 12:39:45;;;;;;;4.85;2.63;;;;;;;;;;4984635;28;92714;-73
2022/05/31 12:42:14;;;;;;;7.20;2.70;;;;;;;;;;4999130;28;95098;-73
2022/05/31 12:44:44;;;;;;;7.07;3.10;;;;;;;;;;5000792;28;95971;-73
2022/05/31 12:47:29;;;;;;;10.25;3.15;;;;;;;;;;5015744;28;93239;-74
2022/05/31 12:49:57;;;;;;;12.55;3.80;;;;;;;;;;5015544;28;99086;-73
2022/05/31 12:55:13;;;;;;;8.52;2.50;;;;;;;;;;5017909;28;94755;-74
2022/05/31 13:00:39;;;;;;;16.38;2.97;;;;;;;;;;4917284;28;93276;-73
2022/05/31 13:03:25;;;;;;;12.55;2.63;;;;;;;;;;4917044;28;93354;-74
2022/05/31 13:06:04;;;;;;;10.30;2.78;;;;;;;;;;4916981;28;95434;-74
2022/05/31 13:08:52;;;;;;;6.03;2.60;;;;;;;;;;4904871;28;91708;-74
2022/05/31 13:19:47;;;;;;;7.75;3.55;;;;;;;;;;4897936;28;96051;-74
2022/05/31 13:22:17;;;;;;;5.13;2.50;;;;;;;;;;4897375;28;92511;-74
2022/05/31 13:24:48;;;;;;;4.70;2.42;;;;;;;;;;4897068;28;94680;-73
2022/05/31 13:27:17;;;;;;;19.00;3.42;;;;;;;;;;4916588;28;93474;-74
2022/05/31 13:29:44;;;;;;;8.27;2.83;;;;;;;;;;4915968;28;92568;-73
2022/05/31 13:32:10;;;;;;;10.27;3.33;;;;;;;;;;4919644;28;92982;-74
2022/05/31 13:34:39;;;;;;;9.93;3.05;;;;;;;;;;4916970;28;91891;-74
2022/05/31 13:37:14;;;;;;;11.88;3.97;;;;;;;;;;4963369;28;92873;-74
2022/05/31 13:39:42;;;;;;;8.50;3.53;;;;;;;;;;4996841;28;93514;-73
2022/05/31 13:42:16;;;;;;;8.70;3.80;;;;;;;;;;4995270;28;94867;-74
2022/05/31 13:44:49;;;;;;;;;;;;;;;;;;5016888;28;95559;-74
2022/05/31 13:47:17;;;;;;;9.38;4.40;;;;;;;;;;5017493;28;124198;-73
2022/05/31 13:49:45;;;;;;;11.50;4.13;;;;;;;;;;4998320;28;92465;-74
2022/05/31 13:52:26;;;;;;;12.63;4.53;;;;;;;;;;5001765;28;93342;-74
2022/05/31 13:54:54;;;;;;;6.68;4.35;;;;;;;;;;4998280;28;92542;-74
2022/05/31 13:57:24;;;;;;;11.35;4.50;;;;;;;;;;4999031;28;93315;-74
2022/05/31 13:59:52;;;;;;;17.05;5.22;;;;;;;;;;4999748;28;92688;-74
2022/05/31 14:02:24;;;;;;;8.82;4.88;;;;;;;;;;5016364;28;92380;-74
2022/05/31 14:05:03;;;;;;;15.93;6.15;;;;;;;;;;4999469;28;93249;-75
2022/05/31 14:07:32;;;;;;;22.27;5.72;;;;;;;;;;5013417;28;95873;-75
2022/05/31 14:09:58;;;;;;;16.70;5.22;;;;;;;;;;4998838;28;92534;-74
2022/05/31 14:12:26;;;;;;;5.63;4.65;;;;;;;;;;5017177;28;92991;-74
2022/05/31 14:14:53;;;;;;;17.77;5.07;;;;;;;;;;5012210;28;94426;-74
2022/05/31 14:17:39;;;;;;;13.05;5.75;;;;;;;;;;5015357;28;93246;-75
2022/05/31 14:20:17;;;;;;;7.03;4.68;;;;;;;;;;4998727;28;93627;-75
2022/05/31 14:22:44;;;;;;;11.10;4.75;;;;;;;;;;4998534;28;92510;-75
2022/05/31 14:25:10;;;;;;;12.90;4.55;;;;;;;;;;5036516;28;93420;-74
2022/05/31 14:27:39;;;;;;;11.38;4.60;;;;;;;;;;5005699;28;93381;-74
2022/05/31 14:30:10;;;;;;;12.25;5.10;;;;;;;;;;4999317;28;92486;-74
2022/05/31 14:32:46;;;;;;;7.68;4.47;;;;;;;;;;4997180;28;94886;-75
2022/05/31 14:35:17;;;;;;;14.50;7.07;;;;;;;;;;5016613;28;93248;-74
2022/05/31 14:37:50;;;;;;;7.50;5.10;;;;;;;;;;5018113;28;92439;-75
2022/05/31 14:40:31;;;;;;;11.95;5.18;;;;;;;;;;5016823;28;93460;-75
2022/05/31 14:43:14;;;;;;;8.95;5.40;;;;;;;;;;5015869;28;92451;-74
2022/05/31 14:45:46;;;;;;;12.30;5.90;;;;;;;;;;5016181;28;93400;-75
2022/05/31 14:48:28;;;;;;;12.10;5.72;;;;;;;;;;5014832;28;93615;-75
2022/05/31 14:51:01;;;;;;;14.75;5.80;;;;;;;;;;5016506;28;91752;-75
2022/05/31 14:53:38;;;;;;;13.88;5.97;;;;;;;;;;5016318;28;93549;-75
2022/05/31 14:56:18;;;;;;;9.18;6.57;;;;;;;;;;5015425;28;94601;-74
2022/05/31 14:58:45;;;;;;;9.13;6.17;;;;;;;;;;5014546;28;94920;-74
2022/05/31 15:01:17;;;;;;;10.20;6.70;;;;;;;;;;5017996;28;96202;-75
2022/05/31 15:03:45;;;;;;;13.30;6.50;;;;;;;;;;4996947;28;92571;-74
2022/05/31 15:06:13;;;;;;;11.40;6.78;;;;;;;;;;5015710;28;92863;-74
2022/05/31 15:08:41;;;;;;;11.32;6.57;;;;;;;;;;4997368;28;93466;-74
2022/05/31 15:19:38;;;;;;;18.83;6.70;;;;;;;;;;5016084;28;92573;-74
2022/05/31 15:22:05;;;;;;;12.15;6.57;;;;;;;;;;5015689;28;93248;-74
2022/05/31 15:24:34;;;;;;;9.55;6.32;;;;;;;;;;5030926;28;96253;-74
2022/05/31 15:27:01;;;;;;;8.63;6.43;;;;;;;;;;5017669;28;95926;-75
2022/05/31 15:29:27;;;;;;;10.43;6.68;;;;;;;;;;5017555;28;93463;-74
2022/05/31 15:31:54;;;;;;;11.13;6.55;;;;;;;;;;5001464;28;92461;-75
2022/05/31 15:34:33;;;;;;;12.32;6.40;;;;;;;;;;5015404;28;93262;-74
2022/05/31 15:36:59;;;;;;;9.82;6.28;;;;;;;;;;5014975;28;93539;-74
2022/05/31 15:39:27;;;;;;;9.73;6.75;;;;;;;;;;5014997;28;92460;-74
2022/05/31 15:41:53;;;;;;;6.60;5.47;;;;;;;;;;5015564;28;93349;-74